Port Heiden Airport Port Heiden US
ICAO: PAPH
IATA:
Category: Medium
Scheduled Services:

Elevation: 95 ft
TransAlt. 18000 ft.

Airport Communications:
AWOS 3:135.4
ANCHORAGE CNTR:132.9
CTAF:122.8
KENAI RDO:122

PAPH Zoom In..

Runways:

(A) RW 05 length 5000 ft width 100 ft
---- / hdg 54

(B) RW 13 length 4000 ft width 100 ft
---- / hdg 131

(C) RW 23 length 5000 ft width 100 ft
---- / hdg 234

(D) RW 31 length 4000 ft width 100 ft
---- / hdg 311

Location; PAPH
Day. 05 / Time. 14.56 Zulu
* Altimeter: 30.19
* Temperature: 04° c. 39.2°f.
* Wind from: 300° Speed 11 kn.
Dewpoint: 04° c.
Visibility: 5 Statute Miles.
Clouds: Overcast 300 ft.
Conditions: Light Rain.Conditions: Mist.

PAPH 051456Z AUTO 30011KT 5SM -RA BR OVC003 04/04 A3019 RMK AO2 SLP223 P0000 60000 T00390039 58018


Wind From 300°
Speed 11 kn.

 
 
jpsmedia worldairports.se 2020   terms of use